PWSweather.com
Personal Weather Stations
Station Observations
MEREWETHER
MerewetherAU

MerewetherAU

Lat: -32.945, Lon: 151.756

Elevation: 180

Station Type: Davis Vantage Pro

www.merewether.com

High Low Average
Temperature 92.0°F33.3°C 58.0°F14.4°C 74.9°F23.8°C
Dew Point 46.9°F8.3°C 32.3°F0.2°C 40.0°F4.4°C
Winds 18.0 mph 29.0 kmh Calm Calm 4.0 mph NW6.4 kmh NW
Wind Gusts 30.0 mph48.3 kmh -- 10.0 mph16.1 kmh
Humidity 61% 15% 33%
Pressure 29.84 in1010.5 mb 29.56 in1001.0 mb -
Precipitation 0.00 in0.0 mm - -
Hour Temp Dew Point Humidity Winds Wind Gusts Pressure Precip Precip Rate Daily Precip Total
12:05 AM 63.3°F17.4°C 46.9°F8.3°C 55% Calm Calm 2.0 mph3.2 kmh 29.84 in1010.5 mb 0.00 in0.0 mm 0.00 in0.0 mm 0.00 in0.0 mm
12:15 AM 63.0°F17.2°C 46.6°F8.1°C 55% 3.0 mph NW4.8 kmh NW 5.0 mph8.0 kmh 29.83 in1010.2 mb 0.00 in0.0 mm 0.00 in0.0 mm 0.00 in0.0 mm
12:25 AM 62.7°F17.1°C 46.3°F7.9°C 55% 4.0 mph NW6.4 kmh NW 6.0 mph9.7 kmh 29.83 in1010.2 mb 0.00 in0.0 mm 0.00 in0.0 mm 0.00 in0.0 mm
12:35 AM 62.4°F16.9°C 46.0°F7.8°C 55% Calm Calm 7.0 mph11.3 kmh 29.83 in1010.2 mb 0.00 in0.0 mm 0.00 in0.0 mm 0.00 in0.0 mm
12:45 AM 62.1°F16.7°C 45.7°F7.6°C 55% 2.0 mph NW3.2 kmh NW 7.0 mph11.3 kmh 29.82 in1009.8 mb 0.00 in0.0 mm 0.00 in0.0 mm 0.00 in0.0 mm
12:55 AM 61.6°F16.4°C 45.3°F7.4°C 55% 1.0 mph NW1.6 kmh NW 5.0 mph8.0 kmh 29.82 in1009.8 mb 0.00 in0.0 mm 0.00 in0.0 mm 0.00 in0.0 mm
01:05 AM 61.5°F16.4°C 44.2°F6.8°C 53% Calm Calm 3.0 mph4.8 kmh 29.81 in1009.5 mb 0.00 in0.0 mm 0.00 in0.0 mm 0.00 in0.0 mm
01:15 AM 61.9°F16.6°C 43.6°F6.4°C 51% 1.0 mph NW1.6 kmh NW 3.0 mph4.8 kmh 29.81 in1009.5 mb 0.00 in0.0 mm 0.00 in0.0 mm 0.00 in0.0 mm
01:25 AM 62.7°F17.1°C 42.7°F5.9°C 48% Calm Calm 3.0 mph4.8 kmh 29.81 in1009.5 mb 0.00 in0.0 mm 0.00 in0.0 mm 0.00 in0.0 mm
01:35 AM 63.5°F17.5°C 42.9°F6.1°C 47% Calm Calm 4.0 mph6.4 kmh 29.81 in1009.5 mb 0.00 in0.0 mm 0.00 in0.0 mm 0.00 in0.0 mm
01:45 AM 63.7°F17.6°C 43.1°F6.2°C 47% 4.0 mph NW6.4 kmh NW 4.0 mph6.4 kmh 29.81 in1009.5 mb 0.00 in0.0 mm 0.00 in0.0 mm 0.00 in0.0 mm
01:55 AM 63.8°F17.7°C 43.7°F6.5°C 48% 2.0 mph NW3.2 kmh NW 4.0 mph6.4 kmh 29.80 in1009.1 mb 0.00 in0.0 mm 0.00 in0.0 mm 0.00 in0.0 mm
02:05 AM 63.3°F17.4°C 43.8°F6.6°C 49% Calm Calm 4.0 mph6.4 kmh 29.80 in1009.1 mb 0.00 in0.0 mm 0.00 in0.0 mm 0.00 in0.0 mm
02:15 AM 62.9°F17.2°C 44.0°F6.7°C 50% Calm Calm 3.0 mph4.8 kmh 29.80 in1009.1 mb 0.00 in0.0 mm 0.00 in0.0 mm 0.00 in0.0 mm
02:25 AM 62.4°F16.9°C 44.5°F6.9°C 52% 1.0 mph NW1.6 kmh NW 2.0 mph3.2 kmh 29.79 in1008.8 mb 0.00 in0.0 mm 0.00 in0.0 mm 0.00 in0.0 mm
02:35 AM 61.2°F16.2°C 44.4°F6.9°C 54% 2.0 mph NW3.2 kmh NW 4.0 mph6.4 kmh 29.79 in1008.8 mb 0.00 in0.0 mm 0.00 in0.0 mm 0.00 in0.0 mm
02:45 AM 60.2°F15.7°C 44.4°F6.9°C 56% Calm Calm 1.0 mph1.6 kmh 29.79 in1008.8 mb 0.00 in0.0 mm 0.00 in0.0 mm 0.00 in0.0 mm
02:55 AM 60.1°F15.6°C 44.8°F7.1°C 57% 2.0 mph NW3.2 kmh NW 3.0 mph4.8 kmh 29.78 in1008.5 mb 0.00 in0.0 mm 0.00 in0.0 mm 0.00 in0.0 mm
03:05 AM 59.7°F15.4°C 44.9°F7.2°C 58% Calm Calm 3.0 mph4.8 kmh 29.78 in1008.5 mb 0.00 in0.0 mm 0.00 in0.0 mm 0.00 in0.0 mm
03:15 AM 59.3°F15.2°C 44.5°F6.9°C 58% Calm Calm -- 29.78 in1008.5 mb 0.00 in0.0 mm 0.00 in0.0 mm 0.00 in0.0 mm
03:25 AM 58.9°F14.9°C 45.0°F7.2°C 60% Calm Calm -- 29.78 in1008.5 mb 0.00 in0.0 mm 0.00 in0.0 mm 0.00 in0.0 mm
03:35 AM 58.4°F14.7°C 44.6°F7.0°C 60% Calm Calm 1.0 mph1.6 kmh 29.77 in1008.1 mb 0.00 in0.0 mm 0.00 in0.0 mm 0.00 in0.0 mm
03:45 AM 58.7°F14.8°C 44.8°F7.1°C 60% Calm Calm 3.0 mph4.8 kmh 29.77 in1008.1 mb 0.00 in0.0 mm 0.00 in0.0 mm 0.00 in0.0 mm
03:55 AM 58.6°F14.8°C 44.8°F7.1°C 60% Calm Calm 4.0 mph6.4 kmh 29.77 in1008.1 mb 0.00 in0.0 mm 0.00 in0.0 mm 0.00 in0.0 mm
04:05 AM 58.0°F14.4°C 44.6°F7.0°C 61% 3.0 mph NW4.8 kmh NW 4.0 mph6.4 kmh 29.77 in1008.1 mb 0.00 in0.0 mm 0.00 in0.0 mm 0.00 in0.0 mm
04:15 AM 58.1°F14.5°C 44.7°F7.1°C 61% Calm Calm 5.0 mph8.0 kmh 29.77 in1008.1 mb 0.00 in0.0 mm 0.00 in0.0 mm 0.00 in0.0 mm
04:25 AM 58.4°F14.7°C 44.1°F6.7°C 59% 2.0 mph NW3.2 kmh NW 6.0 mph9.7 kmh 29.77 in1008.1 mb 0.00 in0.0 mm 0.00 in0.0 mm 0.00 in0.0 mm
04:35 AM 58.8°F14.9°C 43.6°F6.4°C 57% 1.0 mph NW1.6 kmh NW 6.0 mph9.7 kmh 29.77 in1008.1 mb 0.00 in0.0 mm 0.00 in0.0 mm 0.00 in0.0 mm
04:45 AM 58.7°F14.8°C 43.5°F6.4°C 57% 1.0 mph NW1.6 kmh NW 5.0 mph8.0 kmh 29.77 in1008.1 mb 0.00 in0.0 mm 0.00 in0.0 mm 0.00 in0.0 mm
04:55 AM 58.7°F14.8°C 43.0°F6.1°C 56% Calm Calm 5.0 mph8.0 kmh 29.77 in1008.1 mb 0.00 in0.0 mm 0.00 in0.0 mm 0.00 in0.0 mm
05:05 AM 58.8°F14.9°C 42.7°F5.9°C 55% 1.0 mph NW1.6 kmh NW 4.0 mph6.4 kmh 29.77 in1008.1 mb 0.00 in0.0 mm 0.00 in0.0 mm 0.00 in0.0 mm
05:15 AM 59.3°F15.2°C 42.7°F5.9°C 54% 3.0 mph NW4.8 kmh NW 6.0 mph9.7 kmh 29.76 in1007.8 mb 0.00 in0.0 mm 0.00 in0.0 mm 0.00 in0.0 mm
05:25 AM 59.0°F15.0°C 42.9°F6.1°C 55% 3.0 mph NW4.8 kmh NW 6.0 mph9.7 kmh 29.76 in1007.8 mb 0.00 in0.0 mm 0.00 in0.0 mm 0.00 in0.0 mm
05:35 AM 59.0°F15.0°C 43.3°F6.3°C 56% 1.0 mph NW1.6 kmh NW 4.0 mph6.4 kmh 29.76 in1007.8 mb 0.00 in0.0 mm 0.00 in0.0 mm 0.00 in0.0 mm
05:45 AM 58.5°F14.7°C 43.3°F6.3°C 57% Calm Calm 4.0 mph6.4 kmh 29.76 in1007.8 mb 0.00 in0.0 mm 0.00 in0.0 mm 0.00 in0.0 mm
05:55 AM 58.1°F14.5°C 43.4°F6.3°C 58% Calm Calm 3.0 mph4.8 kmh 29.76 in1007.8 mb 0.00 in0.0 mm 0.00 in0.0 mm 0.00 in0.0 mm
06:05 AM 58.2°F14.6°C 43.9°F6.6°C 59% Calm Calm 1.0 mph1.6 kmh 29.76 in1007.8 mb 0.00 in0.0 mm 0.00 in0.0 mm 0.00 in0.0 mm
06:25 AM 58.2°F14.6°C 43.9°F6.6°C 59% 2.0 mph NW3.2 kmh NW 3.0 mph4.8 kmh 29.76 in1007.8 mb 0.00 in0.0 mm 0.00 in0.0 mm 0.00 in0.0 mm
06:35 AM 58.7°F14.8°C 43.5°F6.4°C 57% 2.0 mph NW3.2 kmh NW 5.0 mph8.0 kmh 29.76 in1007.8 mb 0.00 in0.0 mm 0.00 in0.0 mm 0.00 in0.0 mm
06:45 AM 61.0°F16.1°C 41.2°F5.1°C 48% 5.0 mph NW8.0 kmh NW 8.0 mph12.9 kmh 29.76 in1007.8 mb 0.00 in0.0 mm 0.00 in0.0 mm 0.00 in0.0 mm
06:55 AM 63.7°F17.6°C 40.2°F4.6°C 42% 3.0 mph WSW4.8 kmh WSW 9.0 mph14.5 kmh 29.76 in1007.8 mb 0.00 in0.0 mm 0.00 in0.0 mm 0.00 in0.0 mm
07:05 AM 65.5°F18.6°C 39.9°F4.4°C 39% 5.0 mph NW8.0 kmh NW 10.0 mph16.1 kmh 29.76 in1007.8 mb 0.00 in0.0 mm 0.00 in0.0 mm 0.00 in0.0 mm
07:15 AM 65.8°F18.8°C 40.1°F4.5°C 39% 6.0 mph WNW9.7 kmh WNW 10.0 mph16.1 kmh 29.76 in1007.8 mb 0.00 in0.0 mm 0.00 in0.0 mm 0.00 in0.0 mm
07:25 AM 65.9°F18.8°C 40.2°F4.6°C 39% 4.0 mph NW6.4 kmh NW 9.0 mph14.5 kmh 29.76 in1007.8 mb 0.00 in0.0 mm 0.00 in0.0 mm 0.00 in0.0 mm
07:35 AM 66.7°F19.3°C 39.6°F4.2°C 37% 6.0 mph NW9.7 kmh NW 9.0 mph14.5 kmh 29.76 in1007.8 mb 0.00 in0.0 mm 0.00 in0.0 mm 0.00 in0.0 mm
07:45 AM 67.4°F19.7°C 39.5°F4.2°C 36% 2.0 mph NW3.2 kmh NW 9.0 mph14.5 kmh 29.76 in1007.8 mb 0.00 in0.0 mm 0.00 in0.0 mm 0.00 in0.0 mm
07:55 AM 67.9°F19.9°C 40.0°F4.4°C 36% 3.0 mph NW4.8 kmh NW 9.0 mph14.5 kmh 29.75 in1007.5 mb 0.00 in0.0 mm 0.00 in0.0 mm 0.00 in0.0 mm
08:05 AM 68.5°F20.3°C 39.8°F4.3°C 35% 3.0 mph N4.8 kmh N 8.0 mph12.9 kmh 29.75 in1007.5 mb 0.00 in0.0 mm 0.00 in0.0 mm 0.00 in0.0 mm
08:15 AM 69.6°F20.9°C 40.0°F4.4°C 34% 2.0 mph NW3.2 kmh NW 11.0 mph17.7 kmh 29.74 in1007.1 mb 0.00 in0.0 mm 0.00 in0.0 mm 0.00 in0.0 mm
08:25 AM 70.0°F21.1°C 40.3°F4.6°C 34% 4.0 mph NNW6.4 kmh NNW 11.0 mph17.7 kmh 29.74 in1007.1 mb 0.00 in0.0 mm 0.00 in0.0 mm 0.00 in0.0 mm
08:35 AM 70.9°F21.6°C 41.1°F5.1°C 34% 4.0 mph N6.4 kmh N 11.0 mph17.7 kmh 29.74 in1007.1 mb 0.00 in0.0 mm 0.00 in0.0 mm 0.00 in0.0 mm
08:45 AM 70.6°F21.4°C 40.9°F4.9°C 34% 2.0 mph NW3.2 kmh NW 9.0 mph14.5 kmh 29.74 in1007.1 mb 0.00 in0.0 mm 0.00 in0.0 mm 0.00 in0.0 mm
08:55 AM 70.1°F21.2°C 41.9°F5.5°C 36% 2.0 mph NNW3.2 kmh NNW 7.0 mph11.3 kmh 29.74 in1007.1 mb 0.00 in0.0 mm 0.00 in0.0 mm 0.00 in0.0 mm
09:05 AM 69.8°F21.0°C 43.0°F6.1°C 38% Calm Calm 7.0 mph11.3 kmh 29.73 in1006.8 mb 0.00 in0.0 mm 0.00 in0.0 mm 0.00 in0.0 mm
09:15 AM 70.3°F21.3°C 44.2°F6.8°C 39% 1.0 mph NW1.6 kmh NW 4.0 mph6.4 kmh 29.73 in1006.8 mb 0.00 in0.0 mm 0.00 in0.0 mm 0.00 in0.0 mm
09:25 AM 70.7°F21.5°C 45.2°F7.3°C 40% Calm Calm 1.0 mph1.6 kmh 29.73 in1006.8 mb 0.00 in0.0 mm 0.00 in0.0 mm 0.00 in0.0 mm
09:35 AM 71.2°F21.8°C 45.6°F7.6°C 40% Calm Calm 1.0 mph1.6 kmh 29.72 in1006.4 mb 0.00 in0.0 mm 0.00 in0.0 mm 0.00 in0.0 mm
09:45 AM 71.9°F22.2°C 45.6°F7.6°C 39% 1.0 mph NW1.6 kmh NW 3.0 mph4.8 kmh 29.71 in1006.1 mb 0.00 in0.0 mm 0.00 in0.0 mm 0.00 in0.0 mm
09:55 AM 75.0°F23.9°C 46.2°F7.9°C 36% Calm Calm 3.0 mph4.8 kmh 29.71 in1006.1 mb 0.00 in0.0 mm 0.00 in0.0 mm 0.00 in0.0 mm
10:05 AM 78.9°F26.1°C 43.9°F6.6°C 29% Calm Calm 8.0 mph12.9 kmh 29.70 in1005.8 mb 0.00 in0.0 mm 0.00 in0.0 mm 0.00 in0.0 mm
10:15 AM 83.0°F28.3°C 40.2°F4.6°C 22% 3.0 mph W4.8 kmh W 17.0 mph27.4 kmh 29.70 in1005.8 mb 0.00 in0.0 mm 0.00 in0.0 mm 0.00 in0.0 mm
10:25 AM 84.7°F29.3°C 39.2°F4.0°C 20% 18.0 mph NNW29.0 kmh NNW 19.0 mph30.6 kmh 29.69 in1005.4 mb 0.00 in0.0 mm 0.00 in0.0 mm 0.00 in0.0 mm
10:35 AM 85.6°F29.8°C 39.9°F4.4°C 20% 5.0 mph NNW8.0 kmh NNW 19.0 mph30.6 kmh 29.69 in1005.4 mb 0.00 in0.0 mm 0.00 in0.0 mm 0.00 in0.0 mm
10:45 AM 85.4°F29.7°C 38.4°F3.6°C 19% 6.0 mph NW9.7 kmh NW 19.0 mph30.6 kmh 29.68 in1005.1 mb 0.00 in0.0 mm 0.00 in0.0 mm 0.00 in0.0 mm
10:55 AM 86.6°F30.3°C 38.0°F3.3°C 18% 12.0 mph NNW19.3 kmh NNW 20.0 mph32.2 kmh 29.67 in1004.7 mb 0.00 in0.0 mm 0.00 in0.0 mm 0.00 in0.0 mm
11:05 AM 87.5°F30.8°C 37.3°F2.9°C 17% 3.0 mph NW4.8 kmh NW 20.0 mph32.2 kmh 29.67 in1004.7 mb 0.00 in0.0 mm 0.00 in0.0 mm 0.00 in0.0 mm
11:15 AM 88.0°F31.1°C 36.2°F2.3°C 16% 9.0 mph NW14.5 kmh NW 25.0 mph40.2 kmh 29.66 in1004.4 mb 0.00 in0.0 mm 0.00 in0.0 mm 0.00 in0.0 mm
11:25 AM 89.1°F31.7°C 35.4°F1.9°C 15% 9.0 mph W14.5 kmh W 30.0 mph48.3 kmh 29.66 in1004.4 mb 0.00 in0.0 mm 0.00 in0.0 mm 0.00 in0.0 mm
11:35 AM 89.6°F32.0°C 35.8°F2.1°C 15% 9.0 mph WSW14.5 kmh WSW 30.0 mph48.3 kmh 29.65 in1004.1 mb 0.00 in0.0 mm 0.00 in0.0 mm 0.00 in0.0 mm
11:45 AM 90.5°F32.5°C 36.5°F2.5°C 15% 12.0 mph NNW19.3 kmh NNW 28.0 mph45.1 kmh 29.65 in1004.1 mb 0.00 in0.0 mm 0.00 in0.0 mm 0.00 in0.0 mm
11:55 AM 90.7°F32.6°C 36.7°F2.6°C 15% 6.0 mph NW9.7 kmh NW 26.0 mph41.8 kmh 29.64 in1003.7 mb 0.00 in0.0 mm 0.00 in0.0 mm 0.00 in0.0 mm
12:05 PM 90.6°F32.6°C 36.6°F2.6°C 15% 9.0 mph WNW14.5 kmh WNW 26.0 mph41.8 kmh 29.64 in1003.7 mb 0.00 in0.0 mm 0.00 in0.0 mm 0.00 in0.0 mm
12:15 PM 91.3°F32.9°C 37.1°F2.8°C 15% 13.0 mph NW20.9 kmh NW 22.0 mph35.4 kmh 29.63 in1003.4 mb 0.00 in0.0 mm 0.00 in0.0 mm 0.00 in0.0 mm
12:25 PM 91.7°F33.2°C 37.5°F3.1°C 15% 16.0 mph NW25.7 kmh NW 26.0 mph41.8 kmh 29.62 in1003.0 mb 0.00 in0.0 mm 0.00 in0.0 mm 0.00 in0.0 mm
12:35 PM 91.6°F33.1°C 37.4°F3.0°C 15% 6.0 mph NW9.7 kmh NW 26.0 mph41.8 kmh 29.61 in1002.7 mb 0.00 in0.0 mm 0.00 in0.0 mm 0.00 in0.0 mm
12:45 PM 92.0°F33.3°C 37.7°F3.2°C 15% 12.0 mph NW19.3 kmh NW 25.0 mph40.2 kmh 29.61 in1002.7 mb 0.00 in0.0 mm 0.00 in0.0 mm 0.00 in0.0 mm
12:55 PM 90.9°F32.7°C 36.8°F2.7°C 15% 10.0 mph WNW16.1 kmh WNW 21.0 mph33.8 kmh 29.60 in1002.4 mb 0.00 in0.0 mm 0.00 in0.0 mm 0.00 in0.0 mm
01:05 PM 89.6°F32.0°C 37.4°F3.0°C 16% 15.0 mph NW24.1 kmh NW 26.0 mph41.8 kmh 29.60 in1002.4 mb 0.00 in0.0 mm 0.00 in0.0 mm 0.00 in0.0 mm
01:15 PM 89.9°F32.2°C 36.0°F2.2°C 15% 10.0 mph NW16.1 kmh NW 26.0 mph41.8 kmh 29.60 in1002.4 mb 0.00 in0.0 mm 0.00 in0.0 mm 0.00 in0.0 mm
01:25 PM 89.9°F32.2°C 36.0°F2.2°C 15% 5.0 mph NNW8.0 kmh NNW 21.0 mph33.8 kmh 29.59 in1002.0 mb 0.00 in0.0 mm 0.00 in0.0 mm 0.00 in0.0 mm
01:35 PM 90.0°F32.2°C 37.7°F3.2°C 16% 8.0 mph NW12.9 kmh NW 21.0 mph33.8 kmh 29.59 in1002.0 mb 0.00 in0.0 mm 0.00 in0.0 mm 0.00 in0.0 mm
01:45 PM 90.8°F32.7°C 38.4°F3.6°C 16% 12.0 mph WNW19.3 kmh WNW 26.0 mph41.8 kmh 29.58 in1001.7 mb 0.00 in0.0 mm 0.00 in0.0 mm 0.00 in0.0 mm
01:55 PM 91.9°F33.3°C 37.6°F3.1°C 15% 14.0 mph WNW22.5 kmh WNW 26.0 mph41.8 kmh 29.58 in1001.7 mb 0.00 in0.0 mm 0.00 in0.0 mm 0.00 in0.0 mm
02:05 PM 91.0°F32.8°C 36.9°F2.7°C 15% 12.0 mph NNW19.3 kmh NNW 29.0 mph46.7 kmh 29.58 in1001.7 mb 0.00 in0.0 mm 0.00 in0.0 mm 0.00 in0.0 mm
02:15 PM 91.4°F33.0°C 37.2°F2.9°C 15% 7.0 mph NNW11.3 kmh NNW 29.0 mph46.7 kmh 29.58 in1001.7 mb 0.00 in0.0 mm 0.00 in0.0 mm 0.00 in0.0 mm
02:25 PM 91.7°F33.2°C 37.5°F3.1°C 15% 12.0 mph WNW19.3 kmh WNW 17.0 mph27.4 kmh 29.58 in1001.7 mb 0.00 in0.0 mm 0.00 in0.0 mm 0.00 in0.0 mm
02:35 PM 91.7°F33.2°C 37.5°F3.1°C 15% 11.0 mph NW17.7 kmh NW 27.0 mph43.5 kmh 29.57 in1001.4 mb 0.00 in0.0 mm 0.00 in0.0 mm 0.00 in0.0 mm
02:45 PM 91.1°F32.8°C 37.0°F2.8°C 15% 10.0 mph NW16.1 kmh NW 27.0 mph43.5 kmh 29.57 in1001.4 mb 0.00 in0.0 mm 0.00 in0.0 mm 0.00 in0.0 mm
02:55 PM 91.7°F33.2°C 39.1°F3.9°C 16% 9.0 mph NW14.5 kmh NW 24.0 mph38.6 kmh 29.57 in1001.4 mb 0.00 in0.0 mm 0.00 in0.0 mm 0.00 in0.0 mm
03:05 PM 91.2°F32.9°C 37.1°F2.8°C 15% 7.0 mph WNW11.3 kmh WNW 24.0 mph38.6 kmh 29.57 in1001.4 mb 0.00 in0.0 mm 0.00 in0.0 mm 0.00 in0.0 mm
03:15 PM 91.3°F32.9°C 38.8°F3.8°C 16% 12.0 mph NW19.3 kmh NW 24.0 mph38.6 kmh 29.57 in1001.4 mb 0.00 in0.0 mm 0.00 in0.0 mm 0.00 in0.0 mm
03:25 PM 91.4°F33.0°C 38.9°F3.8°C 16% 11.0 mph NW17.7 kmh NW 25.0 mph40.2 kmh 29.57 in1001.4 mb 0.00 in0.0 mm 0.00 in0.0 mm 0.00 in0.0 mm
03:35 PM 91.4°F33.0°C 38.9°F3.8°C 16% 9.0 mph NW14.5 kmh NW 25.0 mph40.2 kmh 29.57 in1001.4 mb 0.00 in0.0 mm 0.00 in0.0 mm 0.00 in0.0 mm
03:45 PM 91.2°F32.9°C 38.7°F3.7°C 16% 10.0 mph NW16.1 kmh NW 24.0 mph38.6 kmh 29.56 in1001.0 mb 0.00 in0.0 mm 0.00 in0.0 mm 0.00 in0.0 mm
03:55 PM 91.2°F32.9°C 38.7°F3.7°C 16% 16.0 mph WNW25.7 kmh WNW 24.0 mph38.6 kmh 29.56 in1001.0 mb 0.00 in0.0 mm 0.00 in0.0 mm 0.00 in0.0 mm
04:05 PM 90.7°F32.6°C 38.3°F3.5°C 16% 6.0 mph NW9.7 kmh NW 23.0 mph37.0 kmh 29.56 in1001.0 mb 0.00 in0.0 mm 0.00 in0.0 mm 0.00 in0.0 mm
04:15 PM 89.9°F32.2°C 37.7°F3.2°C 16% 10.0 mph NW16.1 kmh NW 23.0 mph37.0 kmh 29.56 in1001.0 mb 0.00 in0.0 mm 0.00 in0.0 mm 0.00 in0.0 mm
04:25 PM 90.1°F32.3°C 37.8°F3.2°C 16% 11.0 mph WNW17.7 kmh WNW 20.0 mph32.2 kmh 29.56 in1001.0 mb 0.00 in0.0 mm 0.00 in0.0 mm 0.00 in0.0 mm
04:35 PM 89.9°F32.2°C 37.7°F3.2°C 16% 7.0 mph N11.3 kmh N 14.0 mph22.5 kmh 29.56 in1001.0 mb 0.00 in0.0 mm 0.00 in0.0 mm 0.00 in0.0 mm
04:45 PM 89.5°F31.9°C 38.9°F3.8°C 17% 7.0 mph NW11.3 kmh NW 16.0 mph25.7 kmh 29.56 in1001.0 mb 0.00 in0.0 mm 0.00 in0.0 mm 0.00 in0.0 mm
04:55 PM 89.1°F31.7°C 38.6°F3.7°C 17% 6.0 mph NW9.7 kmh NW 16.0 mph25.7 kmh 29.56 in1001.0 mb 0.00 in0.0 mm 0.00 in0.0 mm 0.00 in0.0 mm
05:05 PM 88.6°F31.4°C 38.2°F3.4°C 17% 5.0 mph NNW8.0 kmh NNW 12.0 mph19.3 kmh 29.57 in1001.4 mb 0.00 in0.0 mm 0.00 in0.0 mm 0.00 in0.0 mm
05:15 PM 88.1°F31.2°C 37.8°F3.2°C 17% 2.0 mph NW3.2 kmh NW 14.0 mph22.5 kmh 29.57 in1001.4 mb 0.00 in0.0 mm 0.00 in0.0 mm 0.00 in0.0 mm
05:25 PM 87.4°F30.8°C 37.2°F2.9°C 17% 7.0 mph NW11.3 kmh NW 14.0 mph22.5 kmh 29.58 in1001.7 mb 0.00 in0.0 mm 0.00 in0.0 mm 0.00 in0.0 mm
05:35 PM 86.7°F30.4°C 36.6°F2.6°C 17% 4.0 mph NW6.4 kmh NW 9.0 mph14.5 kmh 29.58 in1001.7 mb 0.00 in0.0 mm 0.00 in0.0 mm 0.00 in0.0 mm
05:45 PM 85.7°F29.8°C 37.3°F2.9°C 18% 1.0 mph NW1.6 kmh NW 1.0 mph1.6 kmh 29.59 in1002.0 mb 0.00 in0.0 mm 0.00 in0.0 mm 0.00 in0.0 mm
05:55 PM 84.4°F29.1°C 36.2°F2.3°C 18% Calm Calm 3.0 mph4.8 kmh 29.59 in1002.0 mb 0.00 in0.0 mm 0.00 in0.0 mm 0.00 in0.0 mm
06:05 PM 84.2°F29.0°C 34.6°F1.4°C 17% Calm Calm 8.0 mph12.9 kmh 29.59 in1002.0 mb 0.00 in0.0 mm 0.00 in0.0 mm 0.00 in0.0 mm
06:15 PM 83.9°F28.8°C 32.9°F0.5°C 16% 1.0 mph NW1.6 kmh NW 8.0 mph12.9 kmh 29.59 in1002.0 mb 0.00 in0.0 mm 0.00 in0.0 mm 0.00 in0.0 mm
06:25 PM 83.6°F28.7°C 32.6°F0.3°C 16% 2.0 mph NW3.2 kmh NW 6.0 mph9.7 kmh 29.60 in1002.4 mb 0.00 in0.0 mm 0.00 in0.0 mm 0.00 in0.0 mm
06:35 PM 82.8°F28.2°C 33.5°F0.8°C 17% Calm Calm -- 29.60 in1002.4 mb 0.00 in0.0 mm 0.00 in0.0 mm 0.00 in0.0 mm
06:45 PM 81.6°F27.6°C 34.0°F1.1°C 18% Calm Calm -- 29.61 in1002.7 mb 0.00 in0.0 mm 0.00 in0.0 mm 0.00 in0.0 mm
06:55 PM 80.4°F26.9°C 33.0°F0.6°C 18% Calm Calm 1.0 mph1.6 kmh 29.61 in1002.7 mb 0.00 in0.0 mm 0.00 in0.0 mm 0.00 in0.0 mm
07:05 PM 79.5°F26.4°C 33.6°F0.9°C 19% Calm Calm 2.0 mph3.2 kmh 29.61 in1002.7 mb 0.00 in0.0 mm 0.00 in0.0 mm 0.00 in0.0 mm
07:15 PM 79.1°F26.2°C 33.3°F0.7°C 19% Calm Calm 3.0 mph4.8 kmh 29.61 in1002.7 mb 0.00 in0.0 mm 0.00 in0.0 mm 0.00 in0.0 mm
07:25 PM 78.6°F25.9°C 34.2°F1.2°C 20% Calm Calm 3.0 mph4.8 kmh 29.62 in1003.0 mb 0.00 in0.0 mm 0.00 in0.0 mm 0.00 in0.0 mm
07:35 PM 77.7°F25.4°C 34.6°F1.4°C 21% Calm Calm 2.0 mph3.2 kmh 29.62 in1003.0 mb 0.00 in0.0 mm 0.00 in0.0 mm 0.00 in0.0 mm
07:45 PM 77.4°F25.2°C 34.4°F1.3°C 21% 1.0 mph NW1.6 kmh NW 2.0 mph3.2 kmh 29.63 in1003.4 mb 0.00 in0.0 mm 0.00 in0.0 mm 0.00 in0.0 mm
07:55 PM 77.0°F25.0°C 34.1°F1.2°C 21% Calm Calm 3.0 mph4.8 kmh 29.63 in1003.4 mb 0.00 in0.0 mm 0.00 in0.0 mm 0.00 in0.0 mm
08:05 PM 76.7°F24.8°C 35.0°F1.7°C 22% Calm Calm 1.0 mph1.6 kmh 29.64 in1003.7 mb 0.00 in0.0 mm 0.00 in0.0 mm 0.00 in0.0 mm
08:15 PM 76.0°F24.4°C 33.2°F0.7°C 21% Calm Calm 3.0 mph4.8 kmh 29.63 in1003.4 mb 0.00 in0.0 mm 0.00 in0.0 mm 0.00 in0.0 mm
08:25 PM 76.2°F24.6°C 33.4°F0.8°C 21% Calm Calm 3.0 mph4.8 kmh 29.64 in1003.7 mb 0.00 in0.0 mm 0.00 in0.0 mm 0.00 in0.0 mm
08:35 PM 76.3°F24.6°C 32.3°F0.2°C 20% 2.0 mph WSW3.2 kmh WSW 6.0 mph9.7 kmh 29.65 in1004.1 mb 0.00 in0.0 mm 0.00 in0.0 mm 0.00 in0.0 mm
08:45 PM 76.9°F24.9°C 34.0°F1.1°C 21% Calm Calm -- 29.66 in1004.4 mb 0.00 in0.0 mm 0.00 in0.0 mm 0.00 in0.0 mm
08:55 PM 76.0°F24.4°C 34.4°F1.3°C 22% Calm Calm 1.0 mph1.6 kmh 29.66 in1004.4 mb 0.00 in0.0 mm 0.00 in0.0 mm 0.00 in0.0 mm
09:05 PM 74.9°F23.8°C 33.5°F0.8°C 22% Calm Calm 1.0 mph1.6 kmh 29.65 in1004.1 mb 0.00 in0.0 mm 0.00 in0.0 mm 0.00 in0.0 mm
09:15 PM 74.4°F23.6°C 36.3°F2.4°C 25% Calm Calm -- 29.65 in1004.1 mb 0.00 in0.0 mm 0.00 in0.0 mm 0.00 in0.0 mm
09:25 PM 74.1°F23.4°C 37.0°F2.8°C 26% Calm Calm -- 29.66 in1004.4 mb 0.00 in0.0 mm 0.00 in0.0 mm 0.00 in0.0 mm
09:35 PM 73.1°F22.8°C 38.9°F3.8°C 29% Calm Calm 3.0 mph4.8 kmh 29.66 in1004.4 mb 0.00 in0.0 mm 0.00 in0.0 mm 0.00 in0.0 mm
09:45 PM 72.6°F22.6°C 38.5°F3.6°C 29% Calm Calm -- 29.66 in1004.4 mb 0.00 in0.0 mm 0.00 in0.0 mm 0.00 in0.0 mm
09:55 PM 71.9°F22.2°C 41.2°F5.1°C 33% Calm Calm 5.0 mph8.0 kmh 29.66 in1004.4 mb 0.00 in0.0 mm 0.00 in0.0 mm 0.00 in0.0 mm
10:05 PM 72.7°F22.6°C 41.9°F5.5°C 33% 3.0 mph SW4.8 kmh SW 4.0 mph6.4 kmh 29.66 in1004.4 mb 0.00 in0.0 mm 0.00 in0.0 mm 0.00 in0.0 mm
10:15 PM 72.9°F22.7°C 42.1°F5.6°C 33% Calm Calm -- 29.65 in1004.1 mb 0.00 in0.0 mm 0.00 in0.0 mm 0.00 in0.0 mm
10:25 PM 72.0°F22.2°C 42.8°F6.0°C 35% Calm Calm -- 29.65 in1004.1 mb 0.00 in0.0 mm 0.00 in0.0 mm 0.00 in0.0 mm
10:35 PM 70.5°F21.4°C 42.2°F5.7°C 36% Calm Calm -- 29.64 in1003.7 mb 0.00 in0.0 mm 0.00 in0.0 mm 0.00 in0.0 mm
10:45 PM 69.3°F20.7°C 42.6°F5.9°C 38% 2.0 mph SW3.2 kmh SW 2.0 mph3.2 kmh 29.65 in1004.1 mb 0.00 in0.0 mm 0.00 in0.0 mm 0.00 in0.0 mm
10:55 PM 69.2°F20.7°C 43.8°F6.6°C 40% 1.0 mph SW1.6 kmh SW 3.0 mph4.8 kmh 29.65 in1004.1 mb 0.00 in0.0 mm 0.00 in0.0 mm 0.00 in0.0 mm
11:05 PM 69.8°F21.0°C 43.7°F6.5°C 39% 3.0 mph SW4.8 kmh SW 4.0 mph6.4 kmh 29.66 in1004.4 mb 0.00 in0.0 mm 0.00 in0.0 mm 0.00 in0.0 mm
11:15 PM 71.1°F21.7°C 44.2°F6.8°C 38% Calm Calm 6.0 mph9.7 kmh 29.66 in1004.4 mb 0.00 in0.0 mm 0.00 in0.0 mm 0.00 in0.0 mm
11:25 PM 69.8°F21.0°C 44.4°F6.9°C 40% 3.0 mph W4.8 kmh W 3.0 mph4.8 kmh 29.66 in1004.4 mb 0.00 in0.0 mm 0.00 in0.0 mm 0.00 in0.0 mm
11:35 PM 67.3°F19.6°C 43.4°F6.3°C 42% Calm Calm 3.0 mph4.8 kmh 29.66 in1004.4 mb 0.00 in0.0 mm 0.00 in0.0 mm 0.00 in0.0 mm
11:45 PM 66.1°F18.9°C 42.9°F6.1°C 43% Calm Calm -- 29.66 in1004.4 mb 0.00 in0.0 mm 0.00 in0.0 mm 0.00 in0.0 mm
11:55 PM 65.7°F18.7°C 43.2°F6.2°C 44% Calm Calm 1.0 mph1.6 kmh 29.66 in1004.4 mb 0.00 in0.0 mm 0.00 in0.0 mm 0.00 in0.0 mm